Time;durP1;ratioP1;P1;durP2;ratioP2;P2;SDS_P1;SDS_P2;PMS_P1;PMS_P2;Temp;Humidity;BMP_temperature;BMP_pressure;BME280_temperature;BME280_humidity;BME280_pressure;Samples;Min_cycle;Max_cycle;Signal;HPM_P1;HPM_P2
2021/07/16 00:00:14;;;;;;;2.83;0.93;;;;;;;13.10;100.00;100930.66;5034854;28;20048;-53
2021/07/16 00:03:18;;;;;;;4.70;0.70;;;;;;;13.02;100.00;100927.34;5035069;28;20052;-52
2021/07/16 00:06:21;;;;;;;2.15;0.55;;;;;;;13.00;100.00;100934.66;5034479;28;20044;-52
2021/07/16 00:09:24;;;;;;;2.10;0.75;;;;;;;12.96;100.00;100934.81;5034662;28;20044;-52
2021/07/16 00:12:27;;;;;;;1.13;0.35;;;;;;;12.83;100.00;100931.38;5042059;28;20508;-53
2021/07/16 00:15:30;;;;;;;0.65;0.55;;;;;;;12.81;100.00;100940.25;5054059;28;20048;-53
2021/07/16 00:18:35;;;;;;;6.55;0.80;;;;;;;12.85;100.00;100937.28;5054263;28;20489;-52
2021/07/16 00:21:38;;;;;;;4.60;0.57;;;;;;;12.85;100.00;100931.69;5054331;28;20504;-52
2021/07/16 00:24:41;;;;;;;1.58;1.33;;;;;;;12.79;100.00;100930.75;5055201;28;20044;-53
2021/07/16 00:27:45;;;;;;;1.83;0.85;;;;;;;12.70;100.00;100928.75;5056226;28;20060;-52
2021/07/16 00:30:50;;;;;;;3.13;0.75;;;;;;;12.68;100.00;100931.22;5055375;28;20493;-52
2021/07/16 00:33:54;;;;;;;4.57;1.45;;;;;;;12.65;100.00;100931.34;5066657;28;20509;-52
2021/07/16 00:36:57;;;;;;;1.58;0.85;;;;;;;12.69;100.00;100927.16;5055434;28;20056;-53
2021/07/16 00:40:01;;;;;;;2.13;1.05;;;;;;;12.66;100.00;100927.31;5056144;28;20068;-52
2021/07/16 00:43:05;;;;;;;2.55;0.38;;;;;;;12.63;100.00;100931.81;5055783;28;20052;-53
2021/07/16 00:46:08;;;;;;;2.10;0.93;;;;;;;12.62;100.00;100927.50;5054788;28;20055;-53
2021/07/16 00:49:12;;;;;;;3.17;0.52;;;;;;;12.59;100.00;100936.78;5053396;28;20055;-53
2021/07/16 00:52:16;;;;;;;8.00;1.55;;;;;;;12.49;100.00;100931.66;5053187;28;20052;-53
2021/07/16 00:55:20;;;;;;;3.97;1.13;;;;;;;12.44;100.00;100938.63;5052941;28;20048;-52
2021/07/16 00:58:24;;;;;;;1.95;0.90;;;;;;;12.41;100.00;100927.59;5053525;28;20044;-52
2021/07/16 01:01:28;;;;;;;3.05;1.20;;;;;;;12.37;100.00;100938.13;5052944;28;20531;-53
2021/07/16 01:04:33;;;;;;;3.13;0.85;;;;;;;12.38;100.00;100936.91;5062749;28;20059;-53
2021/07/16 01:07:37;;;;;;;2.58;0.98;;;;;;;12.37;100.00;100932.53;5053000;28;20063;-52
2021/07/16 01:10:41;;;;;;;8.63;1.33;;;;;;;12.33;100.00;100920.72;5052966;28;20107;-52
2021/07/16 01:13:44;;;;;;;1.25;0.70;;;;;;;12.30;100.00;100930.81;5053455;28;20120;-53
2021/07/16 01:16:48;;;;;;;1.30;0.68;;;;;;;12.26;100.00;100932.22;5053076;28;20052;-53
2021/07/16 01:19:58;;;;;;;2.28;0.93;;;;;;;12.26;100.00;100932.97;5052952;28;20875;-53
2021/07/16 01:23:27;;;;;;;1.38;0.65;;;;;;;12.25;100.00;100925.84;5053241;28;20048;-53
2021/07/16 01:26:31;;;;;;;2.60;0.95;;;;;;;12.19;100.00;100928.44;5052629;28;20059;-53
2021/07/16 01:29:36;;;;;;;3.83;0.63;;;;;;;12.21;100.00;100928.00;5053080;28;20059;-53
2021/07/16 01:32:40;;;;;;;2.38;0.73;;;;;;;12.15;100.00;100924.25;5052945;28;20060;-52
2021/07/16 01:35:44;;;;;;;3.28;0.52;;;;;;;12.00;100.00;100926.84;5052736;28;20059;-53
2021/07/16 01:38:47;;;;;;;1.90;0.68;;;;;;;11.86;100.00;100916.25;5054512;28;20631;-53
2021/07/16 01:41:51;;;;;;;2.78;1.45;;;;;;;11.76;100.00;100923.00;5054864;28;20843;-53
2021/07/16 01:44:54;;;;;;;2.67;1.08;;;;;;;11.82;100.00;100929.56;5055018;28;20095;-53
2021/07/16 01:48:02;;;;;;;5.10;1.15;;;;;;;11.86;100.00;100927.41;5054006;28;20432;-53
2021/07/16 01:51:05;;;;;;;1.40;0.75;;;;;;;11.78;100.00;100922.56;5054189;28;20052;-53
2021/07/16 01:54:08;;;;;;;1.05;0.50;;;;;;;11.77;100.00;100930.16;5054465;28;20043;-53
2021/07/16 01:57:11;;;;;;;1.95;0.63;;;;;;;11.84;100.00;100920.72;5053977;28;20048;-53
2021/07/16 02:00:18;;;;;;;1.33;0.70;;;;;;;11.82;100.00;100931.56;5053811;28;20056;-52
2021/07/16 02:03:21;;;;;;;1.65;0.90;;;;;;;11.80;100.00;100922.88;5053284;28;20052;-53
2021/07/16 02:06:24;;;;;;;10.30;1.10;;;;;;;11.78;100.00;100928.91;5053830;28;20059;-53
2021/07/16 02:09:27;;;;;;;2.40;0.95;;;;;;;11.84;100.00;100923.53;5053701;28;20033;-53
2021/07/16 02:12:31;;;;;;;1.55;1.02;;;;;;;11.67;100.00;100928.56;5053957;28;20044;-52
2021/07/16 02:15:37;;;;;;;2.08;0.50;;;;;;;11.69;100.00;100920.50;5053675;28;20044;-53
2021/07/16 02:18:46;;;;;;;1.15;0.80;;;;;;;11.70;100.00;100924.06;5053954;28;20063;-53
2021/07/16 02:21:49;;;;;;;1.45;0.68;;;;;;;11.64;100.00;100926.66;5053701;28;20052;-52
2021/07/16 02:24:53;;;;;;;5.82;0.45;;;;;;;11.62;100.00;100926.31;5053740;28;20378;-53
2021/07/16 02:28:00;;;;;;;2.90;0.63;;;;;;;11.62;100.00;100933.91;5053782;28;20060;-53
2021/07/16 02:31:10;;;;;;;1.77;0.50;;;;;;;11.58;100.00;100928.47;5054029;28;20048;-53
2021/07/16 02:34:13;;;;;;;5.70;0.65;;;;;;;11.55;100.00;100929.38;5054173;28;20052;-53
2021/07/16 02:37:17;;;;;;;3.33;1.13;;;;;;;11.45;100.00;100925.00;5054068;28;20048;-53
2021/07/16 02:40:21;;;;;;;2.58;0.70;;;;;;;11.45;100.00;100925.00;5053368;28;20536;-53
2021/07/16 02:43:25;;;;;;;2.70;0.55;;;;;;;11.47;100.00;100922.50;5053418;28;20044;-53
2021/07/16 02:46:28;;;;;;;4.43;0.65;;;;;;;11.40;100.00;100926.34;5053438;28;20040;-53
2021/07/16 02:49:32;;;;;;;3.30;0.90;;;;;;;11.35;100.00;100921.34;5053421;28;20059;-53
2021/07/16 02:52:36;;;;;;;0.40;0.40;;;;;;;11.37;100.00;100920.88;5053495;28;20394;-53
2021/07/16 02:55:40;;;;;;;3.35;0.30;;;;;;;11.38;100.00;100920.44;5053272;28;20505;-52
2021/07/16 02:58:43;;;;;;;4.90;1.13;;;;;;;11.29;100.00;100930.75;5053319;28;20055;-53
2021/07/16 03:01:58;;;;;;;1.63;0.73;;;;;;;11.38;100.00;100941.97;5053159;28;20051;-53
2021/07/16 03:05:01;;;;;;;3.17;0.90;;;;;;;11.41;100.00;100936.25;5053183;28;20048;-53
2021/07/16 03:08:08;;;;;;;2.75;0.80;;;;;;;11.35;100.00;100928.94;5053168;28;20040;-52
2021/07/16 03:11:11;;;;;;;6.10;0.77;;;;;;;11.22;100.00;100933.78;5053006;28;20064;-52
2021/07/16 03:14:15;;;;;;;4.93;0.85;;;;;;;11.15;100.00;100934.06;5032818;28;20501;-53
2021/07/16 03:17:18;;;;;;;1.95;0.43;;;;;;;11.10;100.00;100941.00;5032656;28;20060;-53
2021/07/16 03:20:26;;;;;;;1.92;0.70;;;;;;;11.10;100.00;100937.44;5032829;28;20052;-52
2021/07/16 03:23:29;;;;;;;5.10;0.60;;;;;;;11.10;100.00;100943.78;5032434;28;20048;-53
2021/07/16 03:26:33;;;;;;;4.00;1.00;;;;;;;11.12;100.00;100946.13;5032413;28;20099;-53
2021/07/16 03:29:36;;;;;;;0.68;0.40;;;;;;;11.14;100.00;100943.66;5031885;28;20048;-52
2021/07/16 03:32:40;;;;;;;5.03;0.73;;;;;;;11.13;100.00;100942.13;5032889;28;20383;-52
2021/07/16 03:35:43;;;;;;;4.70;1.27;;;;;;;11.18;100.00;100944.31;5032952;28;20052;-52
2021/07/16 03:38:47;;;;;;;4.97;0.82;;;;;;;11.20;100.00;100941.84;5032935;28;20059;-53
2021/07/16 03:41:51;;;;;;;4.28;0.88;;;;;;;11.19;100.00;100946.66;5033001;28;20048;-52
2021/07/16 03:44:54;;;;;;;2.47;0.95;;;;;;;11.22;100.00;100944.94;5032704;28;20395;-52
2021/07/16 03:47:58;;;;;;;1.30;0.40;;;;;;;11.16;100.00;100941.19;5033074;28;20052;-52
2021/07/16 03:51:02;;;;;;;1.67;0.73;;;;;;;11.13;100.00;100956.06;5032624;28;20052;-52
2021/07/16 03:54:05;;;;;;;4.18;1.42;;;;;;;11.17;100.00;100953.91;5033192;28;20056;-52
2021/07/16 03:57:09;;;;;;;2.17;0.93;;;;;;;11.19;100.00;100952.22;5032810;28;20053;-52
2021/07/16 04:00:16;;;;;;;2.50;0.85;;;;;;;11.26;100.00;100962.34;5032693;28;20059;-53
2021/07/16 04:03:21;;;;;;;3.75;1.33;;;;;;;11.24;100.00;100959.25;5032736;28;20052;-52
2021/07/16 04:06:25;;;;;;;2.53;1.08;;;;;;;11.28;100.00;100952.28;5032786;28;20048;-52
2021/07/16 04:09:32;;;;;;;2.70;0.60;;;;;;;11.46;100.00;100956.44;5032561;28;20049;-52
2021/07/16 04:12:35;;;;;;;1.85;1.10;;;;;;;11.54;100.00;100960.53;5041105;28;20048;-52
2021/07/16 04:15:40;;;;;;;1.58;0.98;;;;;;;11.72;100.00;100955.84;5052072;28;20402;-53
2021/07/16 04:18:44;;;;;;;1.35;0.88;;;;;;;11.81;100.00;100953.13;5052620;28;20389;-52
2021/07/16 04:21:47;;;;;;;1.90;0.90;;;;;;;11.94;100.00;100953.81;5052762;28;20504;-52
2021/07/16 04:24:53;;;;;;;2.28;0.65;;;;;;;12.00;100.00;100965.13;5052354;28;20048;-52
2021/07/16 04:27:57;;;;;;;2.17;0.82;;;;;;;12.26;100.00;100969.28;5052351;28;20056;-52
2021/07/16 04:31:00;;;;;;;3.38;0.75;;;;;;;12.41;100.00;100956.28;5052420;28;20123;-53
2021/07/16 04:34:04;;;;;;;3.15;0.68;;;;;;;12.45;100.00;100959.72;5052262;28;20044;-53
2021/07/16 04:37:08;;;;;;;8.50;0.75;;;;;;;12.50;100.00;100958.34;5052238;28;20056;-52
2021/07/16 04:40:16;;;;;;;4.95;1.30;;;;;;;12.54;100.00;100953.41;5054608;28;20098;-52
2021/07/16 04:43:19;;;;;;;1.63;0.70;;;;;;;12.64;100.00;100963.34;5055759;28;20055;-52
2021/07/16 04:46:23;;;;;;;3.45;0.90;;;;;;;12.86;100.00;100969.59;5055734;28;20385;-52
2021/07/16 04:49:28;;;;;;;1.45;0.68;;;;;;;13.03;100.00;100976.44;5055864;28;20500;-53
2021/07/16 04:52:39;;;;;;;7.80;1.63;;;;;;;13.06;100.00;100978.34;5055611;28;20056;-52
2021/07/16 04:55:43;;;;;;;5.63;1.30;;;;;;;13.13;100.00;100978.03;5054694;28;20048;-52
2021/07/16 04:58:46;;;;;;;4.28;1.15;;;;;;;13.29;100.00;100980.53;5055849;28;20051;-53
2021/07/16 05:01:51;;;;;;;8.00;1.90;;;;;;;13.45;100.00;100977.38;5055458;28;20043;-52
2021/07/16 05:04:55;;;;;;;10.35;2.38;;;;;;;13.57;100.00;100979.25;5055716;28;20048;-53
2021/07/16 05:07:59;;;;;;;12.93;2.42;;;;;;;13.70;100.00;100981.88;5055984;28;20462;-52
2021/07/16 05:11:02;;;;;;;17.30;2.33;;;;;;;13.74;100.00;100982.47;5055601;28;20045;-53
2021/07/16 05:14:06;;;;;;;6.93;1.52;;;;;;;13.78;100.00;100977.50;5035408;28;20405;-53
2021/07/16 05:17:09;;;;;;;12.65;2.67;;;;;;;13.81;100.00;100981.38;5034994;28;20040;-53
2021/07/16 05:20:13;;;;;;;9.43;1.73;;;;;;;13.83;100.00;100973.28;5035429;28;20041;-52
2021/07/16 05:23:17;;;;;;;11.85;2.10;;;;;;;13.97;100.00;100981.03;5035100;28;20060;-52
2021/07/16 05:26:20;;;;;;;5.18;1.73;;;;;;;14.01;100.00;100979.59;5034928;28;20042;-56
2021/07/16 05:29:24;;;;;;;6.32;1.30;;;;;;;13.93;100.00;100988.81;5034560;28;20052;-57
2021/07/16 05:32:27;;;;;;;6.68;1.80;;;;;;;13.90;100.00;100990.53;5035174;28;20052;-56
2021/07/16 05:35:30;;;;;;;4.32;1.15;;;;;;;13.81;100.00;100987.75;5035366;28;20430;-56
2021/07/16 05:38:34;;;;;;;9.27;2.10;;;;;;;13.80;100.00;100982.63;5035133;28;20501;-56
2021/07/16 05:41:37;;;;;;;8.98;1.88;;;;;;;13.92;100.00;100992.88;5035248;28;20064;-56
2021/07/16 05:44:40;;;;;;;9.88;1.90;;;;;;;13.93;100.00;100983.97;5035014;28;20044;-56
2021/07/16 05:47:44;;;;;;;11.00;1.75;;;;;;;13.92;100.00;100987.25;5022830;28;20048;-56
2021/07/16 05:50:48;;;;;;;9.52;1.70;;;;;;;13.96;100.00;100999.06;5034058;28;20046;-57
2021/07/16 05:53:51;;;;;;;7.00;2.55;;;;;;;14.02;100.00;101002.78;5034062;28;20056;-57
2021/07/16 05:56:55;;;;;;;7.10;1.70;;;;;;;14.04;100.00;101000.28;5034392;28;20048;-56
2021/07/16 05:59:58;;;;;;;5.15;1.83;;;;;;;14.07;100.00;101004.97;5034983;28;20383;-57
2021/07/16 06:03:03;;;;;;;8.00;2.20;;;;;;;14.11;100.00;100994.34;5034954;28;20048;-56
2021/07/16 06:06:07;;;;;;;3.72;1.55;;;;;;;14.18;100.00;101006.03;5034566;28;20056;-56
2021/07/16 06:09:10;;;;;;;5.93;1.85;;;;;;;14.24;100.00;101003.34;5034451;28;20477;-56
2021/07/16 06:12:13;;;;;;;7.65;1.20;;;;;;;14.38;100.00;101011.88;5040094;28;20044;-56
2021/07/16 06:15:17;;;;;;;10.60;2.55;;;;;;;14.32;100.00;101016.56;5054101;28;20386;-56
2021/07/16 06:18:22;;;;;;;4.28;0.93;;;;;;;14.36;100.00;101022.00;5054202;28;20425;-56
2021/07/16 06:21:26;;;;;;;10.07;0.85;;;;;;;14.42;100.00;101020.13;5054080;28;20505;-56
2021/07/16 06:24:30;;;;;;;6.55;1.83;;;;;;;14.53;100.00;101014.75;5053964;28;20037;-56
2021/07/16 06:27:34;;;;;;;4.57;1.23;;;;;;;14.63;100.00;101019.06;5053656;28;20056;-56
2021/07/16 06:30:38;;;;;;;4.65;1.48;;;;;;;14.56;100.00;101016.63;5054066;28;20437;-56
2021/07/16 06:33:42;;;;;;;5.78;1.17;;;;;;;14.56;100.00;101013.81;5053152;28;20039;-56
2021/07/16 06:36:45;;;;;;;9.73;0.70;;;;;;;14.85;100.00;101011.16;5053316;28;20044;-56
2021/07/16 06:39:49;;;;;;;2.67;0.82;;;;;;;14.90;100.00;101020.97;5053505;28;20070;-56
2021/07/16 06:42:52;;;;;;;16.63;2.28;;;;;;;14.94;100.00;101027.91;5053723;28;20048;-57
2021/07/16 06:45:55;;;;;;;6.20;0.63;;;;;;;15.05;100.00;101021.78;5053961;28;20049;-57
2021/07/16 06:48:59;;;;;;;6.57;0.40;;;;;;;15.14;100.00;101019.69;5053684;28;20044;-56
2021/07/16 06:52:02;;;;;;;0.82;0.38;;;;;;;15.20;100.00;101020.56;5053649;28;20067;-56
2021/07/16 06:55:08;;;;;;;12.88;1.80;;;;;;;15.28;100.00;101034.25;5053746;28;20056;-56
2021/07/16 06:58:11;;;;;;;2.95;0.55;;;;;;;15.32;100.00;101030.00;5052975;28;20041;-57
2021/07/16 07:01:15;;;;;;;0.98;0.30;;;;;;;15.38;100.00;101027.28;5053409;28;20047;-57
2021/07/16 07:04:18;;;;;;;2.28;0.90;;;;;;;15.42;100.00;101027.91;5053251;28;20043;-57
2021/07/16 07:07:21;;;;;;;1.77;0.35;;;;;;;15.45;100.00;101032.56;5052963;28;20048;-57
2021/07/16 07:10:25;;;;;;;3.35;0.63;;;;;;;15.61;100.00;101026.50;5053237;28;20047;-57
2021/07/16 07:13:28;;;;;;;1.27;0.52;;;;;;;15.69;100.00;101030.47;5052721;28;20048;-57
2021/07/16 07:16:32;;;;;;;1.15;0.50;;;;;;;15.77;100.00;101026.03;5052889;28;20112;-57
2021/07/16 07:19:36;;;;;;;1.13;0.47;;;;;;;15.89;100.00;101017.34;5053116;28;20048;-57
2021/07/16 07:22:40;;;;;;;5.57;0.75;;;;;;;16.10;100.00;101026.63;5052787;28;20040;-57
2021/07/16 07:25:44;;;;;;;2.13;0.70;;;;;;;16.13;100.00;101025.66;5052857;28;20040;-57
2021/07/16 07:28:48;;;;;;;1.67;0.70;;;;;;;16.06;100.00;101019.66;5052311;28;20048;-56
2021/07/16 07:31:51;;;;;;;3.60;1.05;;;;;;;16.11;100.00;101011.34;5052383;28;20056;-57
2021/07/16 07:34:54;;;;;;;2.05;0.40;;;;;;;16.20;100.00;101014.00;5052387;28;20051;-57
2021/07/16 07:38:02;;;;;;;3.03;0.60;;;;;;;16.31;100.00;101017.00;5051628;28;20048;-57
2021/07/16 07:41:05;;;;;;;1.67;0.40;;;;;;;16.35;100.00;101019.63;5052270;28;20052;-57
2021/07/16 07:44:09;;;;;;;0.88;0.55;;;;;;;16.37;100.00;101017.09;5052572;28;20048;-57
2021/07/16 07:47:12;;;;;;;1.52;0.60;;;;;;;16.43;100.00;101015.94;5051032;28;20497;-57
2021/07/16 07:50:18;;;;;;;0.80;0.20;;;;;;;16.51;100.00;101011.47;5050998;28;20044;-57
2021/07/16 07:53:21;;;;;;;1.15;0.50;;;;;;;16.79;100.00;101013.91;5050541;28;20044;-57
2021/07/16 07:56:25;;;;;;;2.28;0.40;;;;;;;16.92;100.00;101005.91;5052129;28;20048;-57
2021/07/16 07:59:29;;;;;;;2.88;0.20;;;;;;;16.84;100.00;101004.78;5052558;28;20048;-53
2021/07/16 08:02:32;;;;;;;3.45;1.08;;;;;;;16.88;100.00;101005.34;5052510;28;20493;-53
2021/07/16 08:05:35;;;;;;;0.85;0.35;;;;;;;17.06;100.00;101005.84;5052549;28;20040;-53
2021/07/16 08:08:38;;;;;;;1.40;0.30;;;;;;;17.22;100.00;101007.31;5052683;28;20390;-54
2021/07/16 08:11:42;;;;;;;5.82;1.00;;;;;;;17.37;100.00;101010.81;5051725;28;20055;-53
2021/07/16 08:14:46;;;;;;;0.93;0.50;;;;;;;17.49;100.00;101015.31;5054360;28;20055;-53
2021/07/16 08:17:49;;;;;;;1.40;0.65;;;;;;;17.61;100.00;101017.00;5056365;28;20044;-53
2021/07/16 08:20:52;;;;;;;1.73;0.47;;;;;;;17.75;100.00;101012.53;5056496;28;20055;-53
2021/07/16 08:23:55;;;;;;;0.52;0.40;;;;;;;17.93;100.00;101018.59;5056417;28;20052;-53
2021/07/16 08:26:59;;;;;;;2.25;0.75;;;;;;;18.30;100.00;101009.47;5055484;28;20056;-53
2021/07/16 08:30:03;;;;;;;3.63;0.57;;;;;;;18.50;100.00;101001.69;5056084;28;20056;-54
2021/07/16 08:33:07;;;;;;;1.98;0.55;;;;;;;18.71;100.00;100999.50;5056105;28;20055;-53
2021/07/16 08:36:10;;;;;;;0.73;0.40;;;;;;;18.90;100.00;101000.63;5055655;28;20052;-54
2021/07/16 08:39:13;;;;;;;0.30;0.10;;;;;;;19.14;100.00;101008.72;5055436;28;20048;-54
2021/07/16 08:42:17;;;;;;;2.22;0.30;;;;;;;19.37;100.00;100999.84;5055734;28;20052;-54
2021/07/16 08:45:21;;;;;;;1.33;0.38;;;;;;;19.54;100.00;101006.31;5055601;28;20044;-54
2021/07/16 08:48:28;;;;;;;0.95;0.30;;;;;;;19.64;100.00;100999.13;5055796;28;20040;-53
2021/07/16 08:51:33;;;;;;;2.05;0.68;;;;;;;19.85;100.00;101008.16;5054600;28;20048;-54
2021/07/16 08:54:42;;;;;;;1.88;0.32;;;;;;;20.05;100.00;100995.84;5055238;28;20060;-54
2021/07/16 08:57:46;;;;;;;3.05;0.45;;;;;;;20.23;100.00;101001.78;5055715;28;20059;-53
2021/07/16 09:00:50;;;;;;;1.77;0.25;;;;;;;20.43;100.00;101009.22;5054801;28;20044;-53
2021/07/16 09:04:02;;;;;;;2.05;0.40;;;;;;;20.59;100.00;101011.28;5055240;28;20048;-53
2021/07/16 09:07:06;;;;;;;10.75;1.02;;;;;;;20.69;100.00;101026.69;5055316;28;20378;-53
2021/07/16 09:10:12;;;;;;;1.30;0.10;;;;;;;20.83;100.00;101025.63;5054970;28;20049;-54
2021/07/16 09:13:16;;;;;;;15.52;0.52;;;;;;;21.02;100.00;101025.84;5055182;28;20063;-53
2021/07/16 09:16:20;;;;;;;7.93;0.70;;;;;;;21.12;100.00;101024.28;5055123;28;20033;-53
2021/07/16 09:19:43;;;;;;;4.05;0.65;;;;;;;21.24;100.00;101025.78;5055161;28;20041;-53
2021/07/16 09:23:16;;;;;;;3.13;0.30;;;;;;;21.42;100.00;101027.25;5054891;28;20505;-53
2021/07/16 09:26:26;;;;;;;1.90;0.47;;;;;;;21.51;100.00;101024.09;5052762;28;20060;-53
2021/07/16 09:29:32;;;;;;;2.63;0.40;;;;;;;21.42;100.00;101035.75;5055009;28;20595;-53
2021/07/16 09:32:42;;;;;;;3.50;0.50;;;;;;;21.57;100.00;101030.53;5054571;28;20040;-54
2021/07/16 09:35:49;;;;;;;9.18;0.77;;;;;;;21.53;100.00;101030.78;5054602;28;20052;-53
2021/07/16 09:38:55;;;;;;;1.77;0.50;;;;;;;21.63;100.00;101034.09;5054429;28;20055;-54
2021/07/16 09:41:59;;;;;;;1.75;0.80;;;;;;;21.77;100.00;101032.97;5054715;28;20048;-53
2021/07/16 09:45:02;;;;;;;5.90;0.30;;;;;;;21.88;100.00;101027.25;5054340;28;20047;-53
2021/07/16 09:48:24;;;;;;;9.73;0.50;;;;;;;21.93;100.00;101026.47;5054885;28;20051;-52
2021/07/16 09:51:27;;;;;;;4.30;0.85;;;;;;;21.93;100.00;101017.94;5054247;28;20059;-52
2021/07/16 09:54:31;;;;;;;4.55;0.63;;;;;;;22.08;100.00;101024.03;5053874;28;20401;-52
2021/07/16 09:57:41;;;;;;;3.88;1.42;;;;;;;22.14;100.00;101026.81;5053851;28;20052;-52
2021/07/16 10:00:45;;;;;;;4.60;0.65;;;;;;;22.24;100.00;101034.47;5064981;28;20059;-53
2021/07/16 10:03:50;;;;;;;5.05;0.55;;;;;;;22.27;100.00;101033.41;5053531;28;20052;-53
2021/07/16 10:06:54;;;;;;;0.70;0.45;;;;;;;22.37;100.00;101031.75;5054526;28;20501;-53
2021/07/16 10:09:59;;;;;;;2.35;0.45;;;;;;;22.33;100.00;101034.13;5054039;28;20052;-53
2021/07/16 10:13:04;;;;;;;4.30;1.00;;;;;;;22.44;100.00;101038.94;5054051;28;20052;-53
2021/07/16 10:16:07;;;;;;;4.68;0.80;;;;;;;22.62;100.00;101041.13;5053818;28;20504;-54
2021/07/16 10:19:13;;;;;;;15.77;1.77;;;;;;;22.67;100.00;101040.31;5054223;28;20047;-53
2021/07/16 10:22:18;;;;;;;6.07;0.38;;;;;;;22.74;100.00;101033.28;5054232;28;20044;-53
2021/07/16 10:25:23;;;;;;;5.57;0.50;;;;;;;22.85;100.00;101041.69;5054062;28;20043;-54
2021/07/16 10:28:40;;;;;;;1.48;0.68;;;;;;;22.98;100.00;101039.72;5053263;28;20044;-54
2021/07/16 10:31:44;;;;;;;4.03;0.60;;;;;;;22.97;100.00;101034.56;5053577;28;20044;-54
2021/07/16 10:34:47;;;;;;;2.30;0.47;;;;;;;23.03;100.00;101038.13;5053376;28;20079;-54
2021/07/16 10:37:59;;;;;;;2.03;0.43;;;;;;;23.21;100.00;101037.41;5053074;28;20445;-54
2021/07/16 10:41:03;;;;;;;2.70;0.30;;;;;;;23.34;100.00;101043.22;5053770;28;20064;-54
2021/07/16 10:44:12;;;;;;;1.63;0.25;;;;;;;23.37;100.00;101044.97;5053880;28;20047;-54
2021/07/16 10:47:40;;;;;;;6.70;0.60;;;;;;;23.33;100.00;101042.44;5053966;28;20044;-55
2021/07/16 10:50:46;;;;;;;4.78;0.13;;;;;;;23.36;100.00;101049.13;5053614;28;20044;-54
2021/07/16 10:53:51;;;;;;;4.90;0.43;;;;;;;23.38;100.00;101037.97;5053521;28;20052;-54
2021/07/16 10:57:11;;;;;;;2.05;0.63;;;;;;;23.45;100.00;101037.38;5053299;28;20044;-53
2021/07/16 11:00:36;;;;;;;9.95;0.95;;;;;;;23.56;100.00;101039.31;5053278;28;20489;-54
2021/07/16 11:03:51;;;;;;;0.98;0.40;;;;;;;23.69;100.00;101042.22;5053101;28;20056;-55
2021/07/16 11:06:57;;;;;;;4.65;0.80;;;;;;;23.84;100.00;101043.31;5053303;28;20048;-54
2021/07/16 11:10:00;;;;;;;3.80;0.85;;;;;;;23.94;100.00;101035.91;5053644;28;20377;-54
2021/07/16 11:13:32;;;;;;;1.40;0.38;;;;;;;24.09;100.00;101036.22;5053447;28;20048;-52
2021/07/16 11:16:41;;;;;;;6.50;0.90;;;;;;;24.21;100.00;101036.03;5052887;28;20056;-52
2021/07/16 11:20:15;;;;;;;1.27;0.68;;;;;;;24.41;100.00;101038.25;5052862;28;20409;-52
2021/07/16 11:23:20;;;;;;;3.45;0.50;;;;;;;24.47;100.00;101033.25;5053240;28;20497;-52
2021/07/16 11:26:23;;;;;;;2.72;0.85;;;;;;;24.56;100.00;101022.19;5051971;28;20068;-52
2021/07/16 11:29:28;;;;;;;1.42;0.15;;;;;;;24.57;100.00;101029.44;5052933;28;20044;-52
2021/07/16 11:32:33;;;;;;;0.95;0.35;;;;;;;24.67;100.00;101033.41;5052762;28;20041;-52
2021/07/16 11:35:37;;;;;;;4.00;0.52;;;;;;;24.80;100.00;101027.75;5052953;28;20044;-52
2021/07/16 11:38:53;;;;;;;3.40;0.22;;;;;;;24.93;100.00;101026.22;5052765;28;20497;-52
2021/07/16 11:42:00;;;;;;;2.30;0.30;;;;;;;25.03;100.00;101019.53;5052050;28;20063;-53
2021/07/16 11:45:10;;;;;;;1.08;0.20;;;;;;;25.17;100.00;101015.34;5053017;28;20048;-53
2021/07/16 11:48:17;;;;;;;7.68;0.13;;;;;;;25.25;100.00;101013.38;5051470;28;20044;-53
2021/07/16 11:51:27;;;;;;;0.93;0.50;;;;;;;25.37;100.00;101020.38;5052549;28;20048;-53
2021/07/16 11:54:31;;;;;;;1.55;0.30;;;;;;;25.56;100.00;101021.03;5052544;28;20040;-52
2021/07/16 11:57:44;;;;;;;2.33;0.28;;;;;;;25.48;100.00;101020.19;5052354;28;20508;-53
2021/07/16 12:00:48;;;;;;;1.55;0.20;;;;;;;25.43;100.00;101023.91;5052567;28;20056;-53
2021/07/16 12:03:51;;;;;;;1.40;0.40;;;;;;;25.50;100.00;101034.66;5052465;28;20493;-53
2021/07/16 12:06:54;;;;;;;2.90;0.63;;;;;;;25.63;100.00;101039.56;5052560;28;20056;-52
2021/07/16 12:09:58;;;;;;;2.03;0.65;;;;;;;25.58;100.00;101038.34;5052639;28;20485;-52
2021/07/16 12:13:01;;;;;;;1.10;0.20;;;;;;;25.56;100.00;101026.72;5052746;28;20044;-53
2021/07/16 12:16:07;;;;;;;2.60;0.35;;;;;;;25.63;100.00;101030.22;5052181;28;20044;-53
2021/07/16 12:19:11;;;;;;;1.35;0.30;;;;;;;25.68;100.00;101035.03;5052342;28;20403;-53
2021/07/16 12:22:19;;;;;;;0.93;0.30;;;;;;;25.80;100.00;101024.91;5052386;28;20060;-54
2021/07/16 12:25:23;;;;;;;1.08;0.22;;;;;;;25.74;100.00;101015.69;5052074;28;20048;-55
2021/07/16 12:28:30;;;;;;;2.70;0.22;;;;;;;25.75;100.00;101015.13;5052189;28;20136;-54
2021/07/16 12:31:34;;;;;;;5.88;0.50;;;;;;;25.74;100.00;101018.56;5052038;28;20048;-54
2021/07/16 12:34:45;;;;;;;4.30;0.47;;;;;;;25.76;100.00;101010.97;5052709;28;20044;-54
2021/07/16 12:37:51;;;;;;;2.78;0.10;;;;;;;25.94;100.00;101026.41;5052228;28;20048;-54
2021/07/16 12:41:06;;;;;;;1.10;0.43;;;;;;;26.07;100.00;101026.34;5052633;28;20048;-55
2021/07/16 12:44:11;;;;;;;4.57;0.47;;;;;;;26.27;100.00;101025.59;5052688;28;20063;-54
2021/07/16 12:47:15;;;;;;;3.55;0.43;;;;;;;26.23;100.00;101025.19;5052623;28;20048;-55
2021/07/16 12:50:22;;;;;;;1.50;0.30;;;;;;;26.44;100.00;101017.41;5052300;28;20056;-55
2021/07/16 12:53:31;;;;;;;0.52;0.10;;;;;;;26.42;100.00;101031.47;5052091;28;20040;-55
2021/07/16 12:56:35;;;;;;;1.67;0.10;;;;;;;26.22;100.00;101029.38;5051728;28;20048;-55
2021/07/16 12:59:48;;;;;;;2.20;0.20;;;;;;;26.36;100.00;101027.97;5051801;28;20508;-55
2021/07/16 13:02:51;;;;;;;0.57;0.10;;;;;;;26.13;100.00;101032.72;5055729;28;20056;-55
2021/07/16 13:05:55;;;;;;;0.60;0.10;;;;;;;26.30;100.00;101025.28;5056020;28;20048;-55
2021/07/16 13:09:20;;;;;;;4.07;0.32;;;;;;;26.35;100.00;101031.38;5055399;28;20111;-55
2021/07/16 13:12:31;;;;;;;0.95;0.17;;;;;;;26.19;100.00;101024.78;5055140;28;20060;-55
2021/07/16 13:15:35;;;;;;;1.83;0.13;;;;;;;25.68;100.00;101032.19;5054957;28;20040;-57
2021/07/16 13:18:41;;;;;;;3.40;0.20;;;;;;;26.03;100.00;101028.78;5054930;28;20048;-57
2021/07/16 13:21:44;;;;;;;3.50;0.70;;;;;;;26.31;100.00;101026.78;5054991;28;20067;-58
2021/07/16 13:24:48;;;;;;;3.03;0.20;;;;;;;26.07;100.00;101026.34;5052767;28;20048;-57
2021/07/16 13:27:52;;;;;;;2.30;0.43;;;;;;;26.25;100.00;101029.00;5050810;28;20056;-57
2021/07/16 13:30:55;;;;;;;0.65;0.10;;;;;;;26.36;100.00;101027.22;5050741;28;20052;-57
2021/07/16 13:33:58;;;;;;;2.63;0.32;;;;;;;26.58;100.00;101035.97;5051302;28;20397;-57
2021/07/16 13:37:02;;;;;;;1.58;0.20;;;;;;;26.54;100.00;101040.50;5051834;28;20048;-56
2021/07/16 13:40:07;;;;;;;1.92;0.10;;;;;;;25.90;100.00;101043.09;5051340;28;20508;-57
2021/07/16 13:43:15;;;;;;;0.63;0.25;;;;;;;25.94;100.00;101032.09;5053245;28;20059;-56
2021/07/16 13:46:19;;;;;;;4.20;0.30;;;;;;;26.17;100.00;101033.13;5053823;28;20048;-56
2021/07/16 13:49:23;;;;;;;0.70;0.10;;;;;;;26.59;100.00;101031.81;5051564;28;20040;-57
2021/07/16 13:52:26;;;;;;;0.90;0.40;;;;;;;26.53;100.00;101031.16;5051943;28;20084;-57
2021/07/16 13:55:30;;;;;;;5.30;0.45;;;;;;;26.62;100.00;101039.25;5052284;28;20044;-56
2021/07/16 13:58:33;;;;;;;2.33;0.40;;;;;;;26.91;100.00;101031.47;5052471;28;20056;-57
2021/07/16 14:01:37;;;;;;;1.50;0.22;;;;;;;26.84;100.00;101032.97;5052616;28;20048;-57
2021/07/16 14:04:40;;;;;;;1.08;0.28;;;;;;;26.86;100.00;101033.16;5052515;28;20048;-57
2021/07/16 14:07:44;;;;;;;1.33;0.13;;;;;;;27.00;100.00;101028.88;5052596;28;20043;-57
2021/07/16 14:10:47;;;;;;;2.35;0.17;;;;;;;27.11;100.00;101032.75;5051837;28;20497;-57